sensor_id;sensor_type;location;lat;lon;timestamp;pressure;altitude;pressure_sealevel;temperature;humidity
70976;BME280;58635;51.198;6.010;2023-04-03T00:00:46;102749.00;;;7.16;54.25
70976;BME280;58635;51.198;6.010;2023-04-03T00:03:11;102751.69;;;7.14;54.17
70976;BME280;58635;51.198;6.010;2023-04-03T00:05:37;102748.31;;;7.14;54.21
70976;BME280;58635;51.198;6.010;2023-04-03T00:08:02;102742.47;;;7.12;54.45
70976;BME280;58635;51.198;6.010;2023-04-03T00:10:29;102749.38;;;7.11;54.28
70976;BME280;58635;51.198;6.010;2023-04-03T00:12:55;102747.84;;;7.09;54.49
70976;BME280;58635;51.198;6.010;2023-04-03T00:15:21;102747.97;;;7.07;54.43
70976;BME280;58635;51.198;6.010;2023-04-03T00:17:46;102748.09;;;7.06;54.23
70976;BME280;58635;51.198;6.010;2023-04-03T00:20:12;102755.81;;;7.06;54.43
70976;BME280;58635;51.198;6.010;2023-04-03T00:22:37;102750.78;;;7.04;54.77
70976;BME280;58635;51.198;6.010;2023-04-03T00:25:03;102750.09;;;7.02;54.83
70976;BME280;58635;51.198;6.010;2023-04-03T00:27:29;102746.03;;;6.99;54.73
70976;BME280;58635;51.198;6.010;2023-04-03T00:29:54;102748.59;;;6.99;54.73
70976;BME280;58635;51.198;6.010;2023-04-03T00:32:20;102742.84;;;6.96;54.56
70976;BME280;58635;51.198;6.010;2023-04-03T00:34:45;102745.44;;;6.96;54.61
70976;BME280;58635;51.198;6.010;2023-04-03T00:37:11;102745.56;;;6.94;54.60
70976;BME280;58635;51.198;6.010;2023-04-03T00:39:36;102742.28;;;6.92;54.64
70976;BME280;58635;51.198;6.010;2023-04-03T00:42:01;102739.97;;;6.89;55.04
70976;BME280;58635;51.198;6.010;2023-04-03T00:46:59;102741.25;;;6.84;54.89
70976;BME280;58635;51.198;6.010;2023-04-03T00:49:26;102743.81;;;6.84;54.91
70976;BME280;58635;51.198;6.010;2023-04-03T00:51:51;102744.78;;;6.83;54.83
70976;BME280;58635;51.198;6.010;2023-04-03T00:54:18;102744.91;;;6.81;54.97
70976;BME280;58635;51.198;6.010;2023-04-03T01:10:12;102749.13;;;6.60;54.99
70976;BME280;58635;51.198;6.010;2023-04-03T01:12:41;102754.16;;;6.61;54.96
70976;BME280;58635;51.198;6.010;2023-04-03T01:15:13;102755.78;;;6.62;55.22
70976;BME280;58635;51.198;6.010;2023-04-03T01:17:51;102759.28;;;6.61;54.90
70976;BME280;58635;51.198;6.010;2023-04-03T01:25:48;102755.34;;;6.57;55.12
70976;BME280;58635;51.198;6.010;2023-04-03T01:28:26;102758.72;;;6.58;55.34
70976;BME280;58635;51.198;6.010;2023-04-03T01:33:45;102766.91;;;6.52;55.32
70976;BME280;58635;51.198;6.010;2023-04-03T01:36:18;102764.44;;;6.50;55.19
70976;BME280;58635;51.198;6.010;2023-04-03T01:38:44;102761.66;;;6.42;55.43
70976;BME280;58635;51.198;6.010;2023-04-03T01:41:09;102765.75;;;6.44;55.51
70976;BME280;58635;51.198;6.010;2023-04-03T01:43:35;102759.78;;;6.44;55.53
70976;BME280;58635;51.198;6.010;2023-04-03T01:46:00;102762.47;;;6.42;55.07
70976;BME280;58635;51.198;6.010;2023-04-03T01:48:26;102764.34;;;6.40;55.28
70976;BME280;58635;51.198;6.010;2023-04-03T01:50:51;102764.44;;;6.39;55.71
70976;BME280;58635;51.198;6.010;2023-04-03T01:53:16;102764.56;;;6.37;55.22
70976;BME280;58635;51.198;6.010;2023-04-03T01:55:42;102764.69;;;6.36;55.35
70976;BME280;58635;51.198;6.010;2023-04-03T01:58:07;102763.19;;;6.33;55.54
70976;BME280;58635;51.198;6.010;2023-04-03T02:00:33;102760.72;;;6.32;55.37
70976;BME280;58635;51.198;6.010;2023-04-03T02:02:58;102772.88;;;6.30;55.59
70976;BME280;58635;51.198;6.010;2023-04-03T02:05:24;102767.84;;;6.28;55.65
70976;BME280;58635;51.198;6.010;2023-04-03T02:07:50;102765.38;;;6.27;55.50
70976;BME280;58635;51.198;6.010;2023-04-03T02:10:15;102772.38;;;6.25;55.49
70976;BME280;58635;51.198;6.010;2023-04-03T02:12:41;102781.03;;;6.24;55.56
70976;BME280;58635;51.198;6.010;2023-04-03T02:15:07;102777.06;;;6.20;55.70
70976;BME280;58635;51.198;6.010;2023-04-03T02:17:32;102767.72;;;6.19;55.99
70976;BME280;58635;51.198;6.010;2023-04-03T02:19:58;102777.31;;;6.17;55.92
70976;BME280;58635;51.198;6.010;2023-04-03T02:22:23;102780.78;;;6.15;55.69
70976;BME280;58635;51.198;6.010;2023-04-03T02:24:48;102778.34;;;6.14;55.86
70976;BME280;58635;51.198;6.010;2023-04-03T02:27:14;102778.44;;;6.12;55.83
70976;BME280;58635;51.198;6.010;2023-04-03T02:29:39;102779.28;;;6.13;55.76
70976;BME280;58635;51.198;6.010;2023-04-03T02:32:05;102779.38;;;6.11;55.77
70976;BME280;58635;51.198;6.010;2023-04-03T02:34:30;102786.16;;;6.12;56.01
70976;BME280;58635;51.198;6.010;2023-04-03T02:36:56;102782.78;;;6.12;55.64
70976;BME280;58635;51.198;6.010;2023-04-03T02:39:21;102780.31;;;6.10;55.94
70976;BME280;58635;51.198;6.010;2023-04-03T02:41:47;102784.75;;;6.08;55.95
70976;BME280;58635;51.198;6.010;2023-04-03T02:44:12;102779.63;;;6.08;56.04
70976;BME280;58635;51.198;6.010;2023-04-03T02:46:38;102778.94;;;6.06;56.28
70976;BME280;58635;51.198;6.010;2023-04-03T02:49:03;102789.19;;;6.06;56.10
70976;BME280;58635;51.198;6.010;2023-04-03T02:51:29;102776.47;;;6.05;56.50
70976;BME280;58635;51.198;6.010;2023-04-03T02:53:54;102776.47;;;6.05;56.36
70976;BME280;58635;51.198;6.010;2023-04-03T02:56:20;102777.28;;;6.05;56.47
70976;BME280;58635;51.198;6.010;2023-04-03T02:58:45;102774.00;;;6.03;56.35
70976;BME280;58635;51.198;6.010;2023-04-03T03:01:12;102774.94;;;6.02;56.72
70976;BME280;58635;51.198;6.010;2023-04-03T03:03:38;102777.63;;;6.01;56.77
70976;BME280;58635;51.198;6.010;2023-04-03T03:06:05;102773.41;;;6.00;56.46
70976;BME280;58635;51.198;6.010;2023-04-03T03:08:31;102771.91;;;5.97;56.62
70976;BME280;58635;51.198;6.010;2023-04-03T03:10:57;102766.06;;;5.95;56.43
70976;BME280;58635;51.198;6.010;2023-04-03T03:13:22;102771.19;;;5.95;56.42
70976;BME280;58635;51.198;6.010;2023-04-03T03:15:48;102766.19;;;5.94;56.62
70976;BME280;58635;51.198;6.010;2023-04-03T03:18:13;102777.41;;;5.93;56.67
70976;BME280;58635;51.198;6.010;2023-04-03T03:20:38;102780.88;;;5.92;56.52
70976;BME280;58635;51.198;6.010;2023-04-03T03:23:04;102775.84;;;5.90;56.58
70976;BME280;58635;51.198;6.010;2023-04-03T03:25:29;102782.63;;;5.91;56.51
70976;BME280;58635;51.198;6.010;2023-04-03T03:27:55;102782.63;;;5.91;56.93
70976;BME280;58635;51.198;6.010;2023-04-03T03:30:20;102780.97;;;5.90;56.80
70976;BME280;58635;51.198;6.010;2023-04-03T03:32:46;102785.28;;;5.90;56.91
70976;BME280;58635;51.198;6.010;2023-04-03T03:35:11;102787.75;;;5.91;56.87
70976;BME280;58635;51.198;6.010;2023-04-03T03:37:36;102784.38;;;5.91;56.98
70976;BME280;58635;51.198;6.010;2023-04-03T03:40:02;102775.00;;;5.90;56.90
70976;BME280;58635;51.198;6.010;2023-04-03T03:42:27;102781.72;;;5.92;56.82
70976;BME280;58635;51.198;6.010;2023-04-03T03:44:53;102787.66;;;5.93;57.00
70976;BME280;58635;51.198;6.010;2023-04-03T03:47:18;102782.53;;;5.93;56.82
70976;BME280;58635;51.198;6.010;2023-04-03T03:49:44;102787.66;;;5.93;56.84
70976;BME280;58635;51.198;6.010;2023-04-03T03:52:09;102786.00;;;5.92;57.06
70976;BME280;58635;51.198;6.010;2023-04-03T03:54:36;102785.91;;;5.93;57.24
70976;BME280;58635;51.198;6.010;2023-04-03T03:57:02;102786.72;;;5.94;57.01
70976;BME280;58635;51.198;6.010;2023-04-03T03:59:27;102783.34;;;5.93;57.28
70976;BME280;58635;51.198;6.010;2023-04-03T04:01:53;102783.34;;;5.93;57.26
70976;BME280;58635;51.198;6.010;2023-04-03T04:04:18;102787.56;;;5.94;56.88
70976;BME280;58635;51.198;6.010;2023-04-03T04:06:44;102788.38;;;5.95;57.19
70976;BME280;58635;51.198;6.010;2023-04-03T04:09:10;102789.19;;;5.95;57.08
70976;BME280;58635;51.198;6.010;2023-04-03T04:11:35;102799.44;;;5.95;57.14
70976;BME280;58635;51.198;6.010;2023-04-03T04:14:00;102797.69;;;5.96;57.04
70976;BME280;58635;51.198;6.010;2023-04-03T04:16:26;102805.41;;;5.96;56.95
70976;BME280;58635;51.198;6.010;2023-04-03T04:18:51;102806.34;;;5.95;56.79
70976;BME280;58635;51.198;6.010;2023-04-03T04:21:17;102807.28;;;5.94;57.19
70976;BME280;58635;51.198;6.010;2023-04-03T04:23:42;102804.72;;;5.94;56.70
70976;BME280;58635;51.198;6.010;2023-04-03T04:26:07;102807.41;;;5.92;56.98
70976;BME280;58635;51.198;6.010;2023-04-03T04:28:33;102804.91;;;5.91;56.98
70976;BME280;58635;51.198;6.010;2023-04-03T04:30:58;102804.09;;;5.90;56.82
70976;BME280;58635;51.198;6.010;2023-04-03T04:33:23;102806.75;;;5.88;56.76
70976;BME280;58635;51.198;6.010;2023-04-03T04:35:49;102798.22;;;5.88;57.10
70976;BME280;58635;51.198;6.010;2023-04-03T04:38:15;102811.06;;;5.88;57.12
70976;BME280;58635;51.198;6.010;2023-04-03T04:40:40;102804.28;;;5.87;57.03
70976;BME280;58635;51.198;6.010;2023-04-03T04:43:06;102800.09;;;5.86;57.32
70976;BME280;58635;51.198;6.010;2023-04-03T04:45:32;102806.97;;;5.85;57.33
70976;BME280;58635;51.198;6.010;2023-04-03T04:47:57;102811.41;;;5.83;57.39
70976;BME280;58635;51.198;6.010;2023-04-03T04:50:22;102820.06;;;5.82;57.04
70976;BME280;58635;51.198;6.010;2023-04-03T04:52:48;102817.59;;;5.81;57.20
70976;BME280;58635;51.198;6.010;2023-04-03T04:55:13;102817.59;;;5.81;56.91
70976;BME280;58635;51.198;6.010;2023-04-03T04:57:39;102823.63;;;5.80;56.86
70976;BME280;58635;51.198;6.010;2023-04-03T05:00:05;102821.06;;;5.80;56.91
70976;BME280;58635;51.198;6.010;2023-04-03T05:02:30;102823.06;;;5.76;57.16
70976;BME280;58635;51.198;6.010;2023-04-03T05:04:56;102820.59;;;5.75;56.94
70976;BME280;58635;51.198;6.010;2023-04-03T05:07:21;102822.34;;;5.74;57.32
70976;BME280;58635;51.198;6.010;2023-04-03T05:09:47;102829.34;;;5.72;57.21
70976;BME280;58635;51.198;6.010;2023-04-03T05:12:12;102827.72;;;5.71;57.31
70976;BME280;58635;51.198;6.010;2023-04-03T05:14:38;102832.03;;;5.71;57.12
70976;BME280;58635;51.198;6.010;2023-04-03T05:17:03;102838.09;;;5.70;57.21
70976;BME280;58635;51.198;6.010;2023-04-03T05:19:29;102839.84;;;5.69;56.95
70976;BME280;58635;51.198;6.010;2023-04-03T05:21:54;102843.25;;;5.70;57.13
70976;BME280;58635;51.198;6.010;2023-04-03T05:24:20;102840.66;;;5.70;57.32
70976;BME280;58635;51.198;6.010;2023-04-03T05:26:45;102835.63;;;5.68;57.03
70976;BME280;58635;51.198;6.010;2023-04-03T05:29:11;102843.31;;;5.68;57.29
70976;BME280;58635;51.198;6.010;2023-04-03T05:31:36;102843.56;;;5.65;57.07
70976;BME280;58635;51.198;6.010;2023-04-03T05:34:02;102844.72;;;5.61;57.30
70976;BME280;58635;51.198;6.010;2023-04-03T05:36:28;102844.94;;;5.58;57.36
70976;BME280;58635;51.198;6.010;2023-04-03T05:38:53;102851.09;;;5.55;57.20
70976;BME280;58635;51.198;6.010;2023-04-03T05:41:21;102845.06;;;5.56;57.39
70976;BME280;58635;51.198;6.010;2023-04-03T05:43:47;102848.91;;;5.62;57.67
70976;BME280;58635;51.198;6.010;2023-04-03T05:46:17;102855.44;;;5.66;57.24
70976;BME280;58635;51.198;6.010;2023-04-03T05:48:43;102847.44;;;5.71;57.21
70976;BME280;58635;51.198;6.010;2023-04-03T05:51:15;102853.06;;;5.76;57.18
70976;BME280;58635;51.198;6.010;2023-04-03T05:53:42;102861.97;;;5.83;56.79
70976;BME280;58635;51.198;6.010;2023-04-03T05:56:08;102862.22;;;5.91;56.79
70976;BME280;58635;51.198;6.010;2023-04-03T05:58:34;102861.81;;;5.97;56.67
70976;BME280;58635;51.198;6.010;2023-04-03T06:00:59;102866.47;;;6.03;56.21
70976;BME280;58635;51.198;6.010;2023-04-03T06:03:25;102862.78;;;6.07;56.26
70976;BME280;58635;51.198;6.010;2023-04-03T06:05:51;102863.00;;;6.15;56.13
70976;BME280;58635;51.198;6.010;2023-04-03T06:08:16;102861.88;;;6.20;55.79
70976;BME280;58635;51.198;6.010;2023-04-03T06:10:42;102855.44;;;6.25;56.08
70976;BME280;58635;51.198;6.010;2023-04-03T06:13:07;102861.06;;;6.30;55.76
70976;BME280;58635;51.198;6.010;2023-04-03T06:15:33;102865.53;;;6.39;56.05
70976;BME280;58635;51.198;6.010;2023-04-03T06:17:59;102858.53;;;6.53;55.32
70976;BME280;58635;51.198;6.010;2023-04-03T06:20:24;102862.88;;;6.63;55.38
70976;BME280;58635;51.198;6.010;2023-04-03T06:22:50;102861.13;;;6.64;54.85
70976;BME280;58635;51.198;6.010;2023-04-03T06:25:15;102857.38;;;6.68;55.19
70976;BME280;58635;51.198;6.010;2023-04-03T06:27:42;102865.31;;;6.76;54.77
70976;BME280;58635;51.198;6.010;2023-04-03T06:30:08;102865.78;;;6.81;54.79
70976;BME280;58635;51.198;6.010;2023-04-03T06:32:33;102866.00;;;6.89;54.83
70976;BME280;58635;51.198;6.010;2023-04-03T06:34:59;102865.19;;;7.00;54.44
70976;BME280;58635;51.198;6.010;2023-04-03T06:37:25;102870.41;;;7.10;54.37
70976;BME280;58635;51.198;6.010;2023-04-03T06:39:51;102873.59;;;7.13;54.09
70976;BME280;58635;51.198;6.010;2023-04-03T06:42:17;102877.91;;;7.13;54.37
70976;BME280;58635;51.198;6.010;2023-04-03T06:44:43;102875.66;;;7.19;54.21
70976;BME280;58635;51.198;6.010;2023-04-03T06:47:15;102880.09;;;7.28;53.87
70976;BME280;58635;51.198;6.010;2023-04-03T06:49:42;102881.97;;;7.38;53.93
70976;BME280;58635;51.198;6.010;2023-04-03T06:52:08;102886.97;;;7.50;53.89
70976;BME280;58635;51.198;6.010;2023-04-03T06:54:33;102890.19;;;7.63;53.55
70976;BME280;58635;51.198;6.010;2023-04-03T06:56:59;102889.09;;;7.77;53.22
70976;BME280;58635;51.198;6.010;2023-04-03T06:59:24;102895.13;;;7.87;53.07
70976;BME280;58635;51.198;6.010;2023-04-03T07:01:51;102899.81;;;7.94;52.66
70976;BME280;58635;51.198;6.010;2023-04-03T07:04:16;102894.53;;;7.95;52.59
70976;BME280;58635;51.198;6.010;2023-04-03T07:06:42;102897.88;;;8.07;52.55
70976;BME280;58635;51.198;6.010;2023-04-03T07:09:08;102904.00;;;8.15;52.34
70976;BME280;58635;51.198;6.010;2023-04-03T07:11:34;102905.72;;;8.26;52.25
70976;BME280;58635;51.198;6.010;2023-04-03T07:14:01;102900.66;;;8.36;51.91
70976;BME280;58635;51.198;6.010;2023-04-03T07:16:27;102906.75;;;8.35;51.51
70976;BME280;58635;51.198;6.010;2023-04-03T07:18:52;102900.06;;;8.32;51.74
70976;BME280;58635;51.198;6.010;2023-04-03T07:21:17;102912.47;;;8.38;51.59
70976;BME280;58635;51.198;6.010;2023-04-03T07:23:43;102899.91;;;8.45;51.47
70976;BME280;58635;51.198;6.010;2023-04-03T07:26:08;102907.25;;;8.49;50.97
70976;BME280;58635;51.198;6.010;2023-04-03T07:28:34;102909.81;;;8.49;51.37
70976;BME280;58635;51.198;6.010;2023-04-03T07:31:05;102906.44;;;8.49;51.29
70976;BME280;58635;51.198;6.010;2023-04-03T07:33:32;102911.97;;;8.44;51.29
70976;BME280;58635;51.198;6.010;2023-04-03T07:35:59;102912.25;;;8.41;51.23
70976;BME280;58635;51.198;6.010;2023-04-03T07:38:25;102914.81;;;8.41;51.50
70976;BME280;58635;51.198;6.010;2023-04-03T07:40:51;102914.56;;;8.44;51.33
70976;BME280;58635;51.198;6.010;2023-04-03T07:43:18;102912.34;;;8.40;51.51
70976;BME280;58635;51.198;6.010;2023-04-03T07:45:45;102912.47;;;8.38;51.70
70976;BME280;58635;51.198;6.010;2023-04-03T07:48:12;102914.81;;;8.41;51.41
70976;BME280;58635;51.198;6.010;2023-04-03T07:50:41;102911.97;;;8.44;51.21
70976;BME280;58635;51.198;6.010;2023-04-03T07:53:07;102915.50;;;8.43;51.08
70976;BME280;58635;51.198;6.010;2023-04-03T07:55:33;102920.66;;;8.43;50.99
70976;BME280;58635;51.198;6.010;2023-04-03T07:57:58;102921.22;;;8.47;51.11
70976;BME280;58635;51.198;6.010;2023-04-03T08:00:23;102913.81;;;8.54;51.05
70976;BME280;58635;51.198;6.010;2023-04-03T08:02:50;102913.97;;;8.62;51.06
70976;BME280;58635;51.198;6.010;2023-04-03T08:05:18;102919.56;;;8.67;50.39
70976;BME280;58635;51.198;6.010;2023-04-03T08:07:44;102911.16;;;8.65;50.35
70976;BME280;58635;51.198;6.010;2023-04-03T08:10:09;102914.53;;;8.65;50.15
70976;BME280;58635;51.198;6.010;2023-04-03T08:12:35;102913.59;;;8.66;49.86
70976;BME280;58635;51.198;6.010;2023-04-03T08:15:03;102921.63;;;8.73;49.88
70976;BME280;58635;51.198;6.010;2023-04-03T08:17:28;102928.41;;;8.74;49.18
70976;BME280;58635;51.198;6.010;2023-04-03T08:19:54;102932.53;;;8.76;48.88
70976;BME280;58635;51.198;6.010;2023-04-03T08:22:19;102935.66;;;8.80;48.97
70976;BME280;58635;51.198;6.010;2023-04-03T08:24:45;102934.19;;;8.87;48.80
70976;BME280;58635;51.198;6.010;2023-04-03T08:27:10;102932.03;;;8.92;48.63
70976;BME280;58635;51.198;6.010;2023-04-03T08:29:36;102935.44;;;8.93;48.34
70976;BME280;58635;51.198;6.010;2023-04-03T08:32:03;102944.31;;;9.00;48.25
70976;BME280;58635;51.198;6.010;2023-04-03T08:34:29;102941.47;;;9.03;47.89
70976;BME280;58635;51.198;6.010;2023-04-03T08:36:54;102944.31;;;9.00;47.74
70976;BME280;58635;51.198;6.010;2023-04-03T08:39:20;102941.59;;;9.01;47.84
70976;BME280;58635;51.198;6.010;2023-04-03T08:41:46;102936.44;;;9.11;47.79
70976;BME280;58635;51.198;6.010;2023-04-03T08:49:52;102940.56;;;9.14;45.63
70976;BME280;58635;51.198;6.010;2023-04-03T08:52:27;102937.03;;;9.15;45.99
70976;BME280;58635;51.198;6.010;2023-04-03T09:00:35;102936.47;;;9.21;44.94
70976;BME280;58635;51.198;6.010;2023-04-03T09:03:04;102938.56;;;9.27;45.09
70976;BME280;58635;51.198;6.010;2023-04-03T09:08:31;102931.50;;;9.38;44.45
70976;BME280;58635;51.198;6.010;2023-04-03T09:11:21;102934.38;;;9.45;43.87
70976;BME280;58635;51.198;6.010;2023-04-03T09:19:36;102925.84;;;9.74;42.65
70976;BME280;58635;51.198;6.010;2023-04-03T09:22:21;102930.06;;;9.75;42.37
70976;BME280;58635;51.198;6.010;2023-04-03T09:25:17;102926.38;;;9.77;42.08
70976;BME280;58635;51.198;6.010;2023-04-03T09:27:44;102927.88;;;9.80;41.84
70976;BME280;58635;51.198;6.010;2023-04-03T09:30:14;102923.69;;;9.88;41.62
70976;BME280;58635;51.198;6.010;2023-04-03T09:32:41;102925.84;;;9.93;40.64
70976;BME280;58635;51.198;6.010;2023-04-03T09:37:45;102926.09;;;9.80;39.49
70976;BME280;58635;51.198;6.010;2023-04-03T09:42:53;102919.75;;;9.84;39.28
70976;BME280;58635;51.198;6.010;2023-04-03T09:45:26;102918.38;;;9.90;39.64
70976;BME280;58635;51.198;6.010;2023-04-03T09:50:30;102925.59;;;9.96;39.77
70976;BME280;58635;51.198;6.010;2023-04-03T09:52:55;102921.09;;;9.98;39.31
70976;BME280;58635;51.198;6.010;2023-04-03T09:55:26;102915.91;;;9.98;38.81
70976;BME280;58635;51.198;6.010;2023-04-03T09:57:54;102919.19;;;10.00;38.88
70976;BME280;58635;51.198;6.010;2023-04-03T10:02:55;102911.00;;;10.14;38.42
70976;BME280;58635;51.198;6.010;2023-04-03T10:05:42;102916.44;;;10.21;38.42
70976;BME280;58635;51.198;6.010;2023-04-03T10:08:08;102908.00;;;10.29;38.01
70976;BME280;58635;51.198;6.010;2023-04-03T10:10:34;102910.06;;;10.35;37.54
70976;BME280;58635;51.198;6.010;2023-04-03T10:13:11;102908.94;;;10.37;36.53
70976;BME280;58635;51.198;6.010;2023-04-03T10:15:43;102905.84;;;10.34;36.02
70976;BME280;58635;51.198;6.010;2023-04-03T10:18:37;102909.38;;;10.42;36.14
70976;BME280;58635;51.198;6.010;2023-04-03T10:21:29;102917.50;;;10.47;34.94
70976;BME280;58635;51.198;6.010;2023-04-03T10:24:06;102908.66;;;10.50;34.81
70976;BME280;58635;51.198;6.010;2023-04-03T10:29:46;102914.78;;;10.49;32.59
70976;BME280;58635;51.198;6.010;2023-04-03T10:41:12;102883.84;;;10.57;32.83
70976;BME280;58635;51.198;6.010;2023-04-03T10:46:15;102871.84;;;10.66;32.80
70976;BME280;58635;51.198;6.010;2023-04-03T10:54:30;102877.91;;;10.74;32.97
70976;BME280;58635;51.198;6.010;2023-04-03T10:57:06;102876.94;;;10.75;32.46
70976;BME280;58635;51.198;6.010;2023-04-03T10:59:49;102873.28;;;10.78;32.59
70976;BME280;58635;51.198;6.010;2023-04-03T11:02:27;102875.16;;;10.76;33.45
70976;BME280;58635;51.198;6.010;2023-04-03T11:04:59;102880.97;;;10.88;33.31
70976;BME280;58635;51.198;6.010;2023-04-03T11:07:29;102864.47;;;10.89;32.63
70976;BME280;58635;51.198;6.010;2023-04-03T11:10:02;102853.72;;;10.93;32.74
70976;BME280;58635;51.198;6.010;2023-04-03T11:12:49;102863.31;;;11.01;32.93
70976;BME280;58635;51.198;6.010;2023-04-03T11:15:19;102864.84;;;11.03;32.88
70976;BME280;58635;51.198;6.010;2023-04-03T11:17:59;102860.31;;;11.05;32.47
70976;BME280;58635;51.198;6.010;2023-04-03T11:20:31;102860.31;;;11.05;33.05
70976;BME280;58635;51.198;6.010;2023-04-03T11:23:17;102855.13;;;11.05;33.20
70976;BME280;58635;51.198;6.010;2023-04-03T11:25:47;102855.25;;;11.13;33.27
70976;BME280;58635;51.198;6.010;2023-04-03T11:28:15;102855.44;;;11.20;32.95
70976;BME280;58635;51.198;6.010;2023-04-03T11:33:55;102845.19;;;11.28;32.63
70976;BME280;58635;51.198;6.010;2023-04-03T11:36:26;102828.53;;;11.31;32.82
70976;BME280;58635;51.198;6.010;2023-04-03T11:38:55;102836.53;;;11.37;32.99
70976;BME280;58635;51.198;6.010;2023-04-03T11:41:29;102841.09;;;11.43;32.84
70976;BME280;58635;51.198;6.010;2023-04-03T11:44:12;102833.56;;;11.50;32.80
70976;BME280;58635;51.198;6.010;2023-04-03T11:46:52;102832.44;;;11.53;33.37
70976;BME280;58635;51.198;6.010;2023-04-03T11:49:59;102836.59;;;11.63;33.76
70976;BME280;58635;51.198;6.010;2023-04-03T12:00:47;102830.16;;;12.19;32.13
70976;BME280;58635;51.198;6.010;2023-04-03T12:16:21;102797.72;;;13.08;32.45
70976;BME280;58635;51.198;6.010;2023-04-03T12:19:03;102809.28;;;13.22;32.03
70976;BME280;58635;51.198;6.010;2023-04-03T12:29:24;102796.94;;;13.56;32.02
70976;BME280;58635;51.198;6.010;2023-04-03T12:32:26;102797.25;;;13.61;31.78
70976;BME280;58635;51.198;6.010;2023-04-03T12:41:37;102792.41;;;13.74;31.47
70976;BME280;58635;51.198;6.010;2023-04-03T12:46:42;102774.84;;;13.68;31.41
70976;BME280;58635;51.198;6.010;2023-04-03T12:49:24;102776.91;;;13.81;31.60
70976;BME280;58635;51.198;6.010;2023-04-03T12:51:51;102778.84;;;13.95;31.81
70976;BME280;58635;51.198;6.010;2023-04-03T12:54:35;102784.53;;;13.99;30.74
70976;BME280;58635;51.198;6.010;2023-04-03T12:57:26;102777.56;;;13.91;31.00
70976;BME280;58635;51.198;6.010;2023-04-03T12:59:53;102766.97;;;14.01;31.10
70976;BME280;58635;51.198;6.010;2023-04-03T13:02:30;102760.53;;;14.20;30.90
70976;BME280;58635;51.198;6.010;2023-04-03T13:04:59;102767.16;;;14.30;30.45
70976;BME280;58635;51.198;6.010;2023-04-03T13:07:34;102746.34;;;14.30;30.10
70976;BME280;58635;51.198;6.010;2023-04-03T13:12:55;102741.28;;;14.37;30.63
70976;BME280;58635;51.198;6.010;2023-04-03T13:15:30;102744.97;;;14.43;29.53
70976;BME280;58635;51.198;6.010;2023-04-03T13:18:04;102741.47;;;14.36;29.27
70976;BME280;58635;51.198;6.010;2023-04-03T13:20:32;102735.94;;;14.30;29.46
70976;BME280;58635;51.198;6.010;2023-04-03T13:23:10;102734.50;;;14.28;29.70
70976;BME280;58635;51.198;6.010;2023-04-03T13:25:42;102734.13;;;14.31;29.81
70976;BME280;58635;51.198;6.010;2023-04-03T13:28:12;102737.41;;;14.33;29.80
70976;BME280;58635;51.198;6.010;2023-04-03T13:30:39;102738.78;;;14.44;29.85
70976;BME280;58635;51.198;6.010;2023-04-03T13:33:20;102746.25;;;14.55;29.38
70976;BME280;58635;51.198;6.010;2023-04-03T13:35:46;102739.91;;;14.57;29.75
70976;BME280;58635;51.198;6.010;2023-04-03T13:40:53;102734.22;;;14.54;29.51
70976;BME280;58635;51.198;6.010;2023-04-03T13:43:27;102732.91;;;14.58;29.51
70976;BME280;58635;51.198;6.010;2023-04-03T13:48:38;102731.13;;;14.58;29.89
70976;BME280;58635;51.198;6.010;2023-04-03T13:51:16;102745.25;;;14.56;29.96
70976;BME280;58635;51.198;6.010;2023-04-03T13:53:46;102734.38;;;14.52;29.26
70976;BME280;58635;51.198;6.010;2023-04-03T13:56:36;102723.97;;;14.52;29.31
70976;BME280;58635;51.198;6.010;2023-04-03T14:01:43;102724.44;;;14.56;29.09
70976;BME280;58635;51.198;6.010;2023-04-03T14:06:37;102723.16;;;14.52;29.41
70976;BME280;58635;51.198;6.010;2023-04-03T14:09:03;102718.94;;;14.51;29.48
70976;BME280;58635;51.198;6.010;2023-04-03T14:11:29;102712.47;;;14.47;29.51
70976;BME280;58635;51.198;6.010;2023-04-03T14:13:58;102710.84;;;14.46;29.53
70976;BME280;58635;51.198;6.010;2023-04-03T14:16:29;102704.13;;;14.43;29.12
70976;BME280;58635;51.198;6.010;2023-04-03T14:18:56;102700.72;;;14.43;29.31
70976;BME280;58635;51.198;6.010;2023-04-03T14:21:22;102693.72;;;14.43;29.36
70976;BME280;58635;51.198;6.010;2023-04-03T14:23:48;102691.00;;;14.45;29.51
70976;BME280;58635;51.198;6.010;2023-04-03T14:26:18;102696.31;;;14.43;29.39
70976;BME280;58635;51.198;6.010;2023-04-03T14:28:45;102692.97;;;14.34;28.82
70976;BME280;58635;51.198;6.010;2023-04-03T14:31:12;102692.59;;;14.15;29.02
70976;BME280;58635;51.198;6.010;2023-04-03T14:33:38;102683.81;;;14.08;29.01
70976;BME280;58635;51.198;6.010;2023-04-03T14:36:30;102687.13;;;14.01;29.59
70976;BME280;58635;51.198;6.010;2023-04-03T14:38:56;102681.28;;;13.99;29.79
70976;BME280;58635;51.198;6.010;2023-04-03T14:41:24;102679.31;;;14.01;29.45
70976;BME280;58635;51.198;6.010;2023-04-03T14:43:50;102679.16;;;13.95;29.20
70976;BME280;58635;51.198;6.010;2023-04-03T14:46:28;102682.00;;;13.85;29.63
70976;BME280;58635;51.198;6.010;2023-04-03T14:48:54;102672.06;;;13.81;29.45
70976;BME280;58635;51.198;6.010;2023-04-03T14:51:20;102679.25;;;13.79;29.65
70976;BME280;58635;51.198;6.010;2023-04-03T14:53:46;102675.19;;;13.76;29.65
70976;BME280;58635;51.198;6.010;2023-04-03T14:56:18;102676.34;;;13.73;29.78
70976;BME280;58635;51.198;6.010;2023-04-03T14:58:47;102671.81;;;13.59;29.91
70976;BME280;58635;51.198;6.010;2023-04-03T15:01:16;102674.13;;;13.46;30.17
70976;BME280;58635;51.198;6.010;2023-04-03T15:03:42;102672.22;;;13.40;30.22
70976;BME280;58635;51.198;6.010;2023-04-03T15:06:10;102682.28;;;13.35;30.26
70976;BME280;58635;51.198;6.010;2023-04-03T15:08:37;102677.91;;;13.27;30.38
70976;BME280;58635;51.198;6.010;2023-04-03T15:11:02;102669.44;;;13.25;30.30
70976;BME280;58635;51.198;6.010;2023-04-03T15:13:28;102678.72;;;13.20;30.42